createdAt,value
2023-05-25T00:00:15.961Z,77.33333
2023-05-25T00:05:17.392Z,77.04536
2023-05-25T00:10:19.708Z,76.18884
2023-05-25T00:15:21.261Z,75.34328
2023-05-25T00:20:22.713Z,75.06383
2023-05-25T00:25:24.054Z,74.78556
2023-05-25T00:30:25.756Z,75.06383
2023-05-25T00:35:27.241Z,75.90578
2023-05-25T00:40:28.732Z,76.75862
2023-05-25T00:45:30.260Z,77.04536
2023-05-25T00:50:31.671Z,77.04536
2023-05-25T00:55:33.130Z,77.33333
2023-05-25T01:00:34.744Z,77.33333
2023-05-25T01:05:36.021Z,77.91304
2023-05-25T01:10:37.442Z,77.62256
2023-05-25T01:15:39.103Z,78.49782
2023-05-25T01:20:40.432Z,78.79212
2023-05-25T01:25:41.929Z,79.68282
2023-05-25T01:30:43.670Z,79.98234
2023-05-25T01:35:45.240Z,78.49782
2023-05-25T01:40:46.869Z,77.04536
2023-05-25T01:45:48.343Z,75.34328
2023-05-25T01:50:49.797Z,73.95781
2023-05-25T01:55:51.229Z,74.23256
2023-05-25T02:00:52.873Z,74.78556
2023-05-25T02:05:54.318Z,75.62393
2023-05-25T02:10:55.773Z,76.75862
2023-05-25T02:15:57.374Z,77.62256
2023-05-25T02:20:58.838Z,78.49782
2023-05-25T02:26:00.260Z,79.38462
2023-05-25T02:31:01.927Z,80.28319
2023-05-25T02:36:03.322Z,80.88889
2023-05-25T02:41:04.752Z,80.28319
2023-05-25T02:46:06.422Z,81.5
2023-05-25T02:51:07.877Z,82.11659
2023-05-25T02:56:09.348Z,82.42697
2023-05-25T03:01:11.058Z,82.73874
2023-05-25T03:06:12.603Z,83.36652
2023-05-25T03:11:14.081Z,82.42697
2023-05-25T03:16:15.729Z,82.42697
2023-05-25T03:21:17.107Z,82.73874
2023-05-25T03:26:18.717Z,83.36652
2023-05-25T03:31:20.225Z,84
2023-05-25T03:36:21.822Z,83.68254
2023-05-25T03:41:23.764Z,83.05192
2023-05-25T03:46:25.543Z,82.42697
2023-05-25T03:51:27.052Z,82.42697
2023-05-25T03:56:28.999Z,82.42697
2023-05-25T04:01:30.374Z,82.73874
2023-05-25T04:06:31.864Z,83.36652
2023-05-25T04:11:33.512Z,83.68254
2023-05-25T04:16:35.178Z,83.68254
2023-05-25T04:21:36.475Z,84.31891
2023-05-25T04:26:37.993Z,83.68254
2023-05-25T04:31:39.679Z,83.68254
2023-05-25T04:36:41.201Z,83.36652
2023-05-25T04:41:42.608Z,83.05192
2023-05-25T04:46:44.065Z,83.36652
2023-05-25T04:51:45.561Z,83.05192
2023-05-25T04:56:46.888Z,83.36652
2023-05-25T05:01:49.138Z,83.68254
2023-05-25T05:06:50.611Z,83.68254
2023-05-25T05:11:52.430Z,83.05192
2023-05-25T05:16:53.929Z,83.68254
2023-05-25T05:21:55.585Z,83.68254
2023-05-25T05:26:58.870Z,84
2023-05-25T05:32:00.971Z,82.42697
2023-05-25T05:37:02.707Z,83.05192
2023-05-25T05:42:04.027Z,84.63927
2023-05-25T05:47:05.854Z,86.59259
2023-05-25T05:52:07.744Z,87.92523
2023-05-25T05:57:09.210Z,86.59259
2023-05-25T06:02:10.977Z,83.68254
2023-05-25T06:07:12.354Z,83.36652
2023-05-25T06:12:14.097Z,84.9611
2023-05-25T06:17:15.559Z,86.59259
2023-05-25T06:22:17.237Z,86.92343
2023-05-25T06:27:18.738Z,89.62648
2023-05-25T06:32:20.497Z,88.2623
2023-05-25T06:37:22.268Z,87.92523
2023-05-25T06:42:23.749Z,88.60094
2023-05-25T06:47:25.258Z,88.2623
2023-05-25T06:52:27.133Z,88.94118
2023-05-25T06:57:28.902Z,91.36842
2023-05-25T07:02:30.813Z,91.72182
2023-05-25T07:07:32.426Z,94.98039
2023-05-25T07:12:34.043Z,89.97156
2023-05-25T07:17:36.195Z,91.36842
2023-05-25T07:22:37.953Z,98
2023-05-25T07:27:39.821Z,103.17313
2023-05-25T07:32:41.877Z,104.41667
2023-05-25T07:37:43.298Z,99.16373
2023-05-25T07:42:45.094Z,103.58549
2023-05-25T07:47:47.204Z,92.07692
2023-05-25T07:57:59.028Z,123.06977
2023-05-25T08:03:00.773Z,145.96721
2023-05-25T08:08:02.343Z,144
2023-05-25T08:13:04.398Z,160.90141
2023-05-25T08:18:06.270Z,154.23891
2023-05-25T08:23:07.657Z,152.10811
2023-05-25T08:28:09.169Z,167.18841
2023-05-25T08:33:10.862Z,150.71141
2023-05-25T08:38:12.358Z,156.41379
2023-05-25T08:43:13.822Z,164.78853
2023-05-25T08:48:23.955Z,158.63415
2023-05-25T08:53:37.894Z,168
2023-05-25T08:58:39.791Z,160.90141
2023-05-25T09:03:41.729Z,180.01533
2023-05-25T09:08:43.612Z,179.1145
2023-05-25T09:13:45.202Z,219
2023-05-25T09:18:46.832Z,216.56637
2023-05-25T09:23:48.348Z,208.37768
2023-05-25T09:28:49.632Z,240.15385
2023-05-25T09:33:51.343Z,221.47748
2023-05-25T09:38:53.169Z,231.85047
2023-05-25T09:44:06.701Z,229.18519
2023-05-25T09:49:11.907Z,229.18519
2023-05-25T09:54:13.623Z,243.02913
2023-05-25T09:59:15.520Z,259.89744
2023-05-25T10:04:17.419Z,261.52577
2023-05-25T10:09:19.082Z,276.97297
2023-05-25T10:14:20.623Z,264.83333
2023-05-25T10:19:22.212Z,227.87097
2023-05-25T10:24:23.730Z,273.41176
2023-05-25T10:29:25.317Z,256.69036
2023-05-25T10:34:26.607Z,269.92593
2023-05-25T10:39:28.172Z,263.17098
2023-05-25T10:44:29.845Z,261.52577
2023-05-25T10:49:31.632Z,264.83333
2023-05-25T10:54:33.261Z,276.97297
2023-05-25T10:59:35.619Z,275.1828
2023-05-25T11:04:37.433Z,280.61202
2023-05-25T11:09:39.448Z,271.65957
2023-05-25T11:14:41.352Z,278.78261
2023-05-25T11:19:43.132Z,278.78261
2023-05-25T11:24:44.911Z,312.86228
2023-05-25T11:29:46.858Z,0
2023-05-25T11:34:48.171Z,275.1828
2023-05-25T11:39:49.631Z,0
2023-05-25T11:44:51.466Z,0
2023-05-25T11:49:53.160Z,0
2023-05-25T11:54:54.823Z,0
2023-05-25T11:59:56.833Z,0
2023-05-25T12:04:58.720Z,0
2023-05-25T12:10:00.537Z,0
2023-05-25T12:15:02.205Z,0
2023-05-25T12:20:03.972Z,290.06742
2023-05-25T12:25:05.697Z,0
2023-05-25T12:30:07.475Z,0
2023-05-25T12:35:09.015Z,0
2023-05-25T12:40:10.769Z,0
2023-05-25T12:45:12.484Z,0
2023-05-25T12:50:14.095Z,0
2023-05-25T12:55:16.007Z,0
2023-05-25T13:00:17.516Z,0
2023-05-25T13:05:19.227Z,0
2023-05-25T13:10:20.976Z,0
2023-05-25T13:15:22.516Z,0
2023-05-25T13:20:24.112Z,0
2023-05-25T13:25:25.575Z,0
2023-05-25T13:30:27.449Z,0
2023-05-25T13:35:28.768Z,0
2023-05-25T13:40:30.601Z,0
2023-05-25T13:45:32.366Z,0
2023-05-25T13:50:34.114Z,0
2023-05-25T13:55:37.312Z,0
2023-05-25T14:00:40.257Z,0
2023-05-25T14:05:42.094Z,0
2023-05-25T14:10:43.925Z,0
2023-05-25T14:15:45.763Z,0
2023-05-25T14:20:47.713Z,0
2023-05-25T14:25:49.343Z,0
2023-05-25T14:30:50.964Z,0
2023-05-25T14:35:52.647Z,0
2023-05-25T14:40:54.446Z,0
2023-05-25T14:45:56.091Z,0
2023-05-25T14:50:57.893Z,0
2023-05-25T14:55:59.783Z,235.94313
2023-05-25T15:01:01.532Z,252
2023-05-25T15:06:03.270Z,206.12766
2023-05-25T15:11:05.199Z,190.4
2023-05-25T15:16:06.907Z,142.70968
2023-05-25T15:21:08.802Z,180.01533
2023-05-25T15:26:10.789Z,175.57895
2023-05-25T15:31:12.552Z,173.85075
2023-05-25T15:36:14.408Z,164.78853
2023-05-25T15:41:16.052Z,156.41379
2023-05-25T15:46:17.785Z,162.43972
2023-05-25T15:51:19.607Z,155.68385
2023-05-25T15:56:20.949Z,162.43972
2023-05-25T16:01:22.387Z,168
2023-05-25T16:06:24.097Z,160.90141
2023-05-25T16:11:25.557Z,171.30627
2023-05-25T16:16:27.058Z,162.43972
2023-05-25T16:21:28.753Z,141.4359
2023-05-25T16:26:30.309Z,140.80511
2023-05-25T16:31:31.808Z,126.78932
2023-05-25T16:36:33.430Z,129.54217
2023-05-25T16:41:34.934Z,122.03468
2023-05-25T16:46:36.329Z,116.06704
2023-05-25T16:51:38.061Z,117.03371
2023-05-25T16:56:39.403Z,134.12346
2023-05-25T17:01:40.913Z,141.4359
2023-05-25T17:06:42.403Z,138.32177
2023-05-25T17:11:43.880Z,134.12346
2023-05-25T17:16:45.544Z,141.4359
2023-05-25T17:21:47.240Z,134.71207
2023-05-25T17:26:48.712Z,136.5
2023-05-25T17:31:50.586Z,127.33333
2023-05-25T17:36:52.351Z,118.50425
2023-05-25T17:41:53.722Z,113.23077
2023-05-25T17:46:55.686Z,108.70588
2023-05-25T17:51:57.273Z,109.14745
2023-05-25T17:56:58.660Z,115.58774
2023-05-25T18:02:00.249Z,117.03371
2023-05-25T18:07:01.986Z,119
2023-05-25T18:12:03.309Z,123.06977
2023-05-25T18:17:04.841Z,123.59184
2023-05-25T18:22:06.395Z,125.71091
2023-05-25T18:27:07.908Z,134.71207
2023-05-25T18:32:09.746Z,138.93671
2023-05-25T18:37:11.332Z,141.4359
2023-05-25T18:42:13.008Z,144.65147
2023-05-25T18:47:15.169Z,140.17834
2023-05-25T18:52:16.996Z,138.32177
2023-05-25T18:57:18.630Z,138.32177
2023-05-25T19:02:20.600Z,132.95706
2023-05-25T19:07:21.987Z,128.43114
2023-05-25T19:12:23.484Z,123.59184
2023-05-25T19:17:25.007Z,123.06977
2023-05-25T19:22:26.328Z,119.49858
2023-05-25T19:27:27.825Z,120.5043
2023-05-25T19:32:29.447Z,122.55072
2023-05-25T19:37:30.793Z,131.80488
2023-05-25T19:42:32.276Z,130.66667
2023-05-25T19:47:33.912Z,132.95706
2023-05-25T19:52:35.468Z,139.55556
2023-05-25T19:57:36.880Z,141.4359
2023-05-25T20:02:38.279Z,140.80511
2023-05-25T20:07:39.848Z,142.70968
2023-05-25T20:12:41.277Z,146.63158
2023-05-25T20:17:42.954Z,144.65147
2023-05-25T20:22:44.511Z,144.65147
2023-05-25T20:27:45.988Z,145.96721
2023-05-25T20:32:47.545Z,140.80511
2023-05-25T20:37:48.942Z,142.70968
2023-05-25T20:42:50.450Z,135.30435
2023-05-25T20:47:52.376Z,132.3792
2023-05-25T20:52:53.836Z,131.80488
2023-05-25T20:57:55.111Z,127.8806
2023-05-25T21:02:56.803Z,122.55072
2023-05-25T21:07:58.400Z,121.01149
2023-05-25T21:12:59.823Z,124.64516
2023-05-25T21:18:01.248Z,123.59184
2023-05-25T21:23:02.674Z,122.55072
2023-05-25T21:28:04.132Z,120
2023-05-25T21:33:05.930Z,121.01149
2023-05-25T21:38:07.559Z,120.5043
2023-05-25T21:43:09.007Z,122.55072
2023-05-25T21:48:10.539Z,122.55072
2023-05-25T21:53:12.028Z,128.98498
2023-05-25T21:58:13.686Z,135.30435
2023-05-25T22:03:15.375Z,137.71069
2023-05-25T22:08:17.212Z,137.71069
2023-05-25T22:13:18.528Z,131.80488
2023-05-25T22:18:20.147Z,120
2023-05-25T22:23:21.650Z,123.06977
2023-05-25T22:28:23.078Z,123.06977
2023-05-25T22:33:24.585Z,130.66667
2023-05-25T22:38:26.072Z,135.30435
2023-05-25T22:43:27.379Z,130.10272
2023-05-25T22:48:28.873Z,149.33333
2023-05-25T22:53:30.573Z,172.99628
2023-05-25T22:58:31.848Z,167.18841
2023-05-25T23:03:33.260Z,160.90141
2023-05-25T23:08:34.910Z,157.88889
2023-05-25T23:13:36.179Z,160.90141
2023-05-25T23:18:37.498Z,168.81752
2023-05-25T23:23:38.989Z,166.38267
2023-05-25T23:28:40.352Z,168.81752
2023-05-25T23:33:42.198Z,164.78853
2023-05-25T23:38:44.022Z,168.81752
2023-05-25T23:43:45.696Z,166.38267
2023-05-25T23:48:47.565Z,170.47059
2023-05-25T23:53:49.381Z,177.33333
2023-05-25T23:58:51.166Z,181.83784
